Time,TemperatureF,DewpointF,PressureIn,WindDirection,WindDirectionDegrees,WindSpeedMPH,WindSpeedGustMPH,Humidity,HourlyPrecipIn,Conditions,Clouds,dailyrainin,SoftwareType,DateUTC
2013-01-23 00:00:00,38.2,34.4,30.26,NNW,348,0.0,0.0,86,0.00,,,0.00,Wunderground v.1.15,2013-01-23 05:00:00,
2013-01-23 00:05:00,38.2,34.1,30.26,NNW,348,0.0,0.0,85,0.00,,,0.00,Wunderground v.1.15,2013-01-23 05:05:00,
2013-01-23 00:10:00,38.4,34.6,30.26,NNW,348,0.0,0.0,86,0.00,,,0.00,Wunderground v.1.15,2013-01-23 05:10:00,
2013-01-23 00:15:00,38.8,35.0,30.26,NNW,348,0.0,0.0,86,0.00,,,0.00,Wunderground v.1.15,2013-01-23 05:15:00,
2013-01-23 00:20:00,39.2,35.4,30.26,NNW,348,0.0,0.0,86,0.00,,,0.00,Wunderground v.1.15,2013-01-23 05:20:00,
2013-01-23 00:25:00,39.4,35.6,30.26,NNW,348,0.0,0.0,86,0.00,,,0.00,Wunderground v.1.15,2013-01-23 05:25:00,
2013-01-23 00:30:00,39.4,35.6,30.26,NNW,348,0.0,0.0,86,0.00,,,0.00,Wunderground v.1.15,2013-01-23 05:30:00,
2013-01-23 00:35:00,39.3,35.5,30.26,NNW,348,0.0,0.0,86,0.00,,,0.00,Wunderground v.1.15,2013-01-23 05:35:00,
2013-01-23 00:40:00,39.1,35.3,30.26,NNW,348,0.0,0.0,86,0.00,,,0.00,Wunderground v.1.15,2013-01-23 05:40:00,
2013-01-23 00:45:00,38.9,35.1,30.26,NNW,348,0.0,0.0,86,0.00,,,0.00,Wunderground v.1.15,2013-01-23 05:45:00,
2013-01-23 00:50:00,38.8,35.0,30.26,NNW,348,0.0,0.0,86,0.00,,,0.00,Wunderground v.1.15,2013-01-23 05:50:00,
2013-01-23 00:55:00,38.7,35.2,30.26,NNW,348,0.0,0.0,87,0.00,,,0.00,Wunderground v.1.15,2013-01-23 05:55:00,
2013-01-23 01:00:00,38.6,35.1,30.26,NNW,348,0.0,0.0,87,0.00,,,0.00,Wunderground v.1.15,2013-01-23 06:00:00,
2013-01-23 01:05:00,38.5,35.0,30.26,NNW,348,0.0,0.0,87,0.00,,,0.00,Wunderground v.1.15,2013-01-23 06:05:00,
2013-01-23 01:15:00,38.3,34.8,30.26,NNW,348,0.0,0.0,87,0.00,,,0.00,Wunderground v.1.15,2013-01-23 06:15:00,
2013-01-23 01:20:00,38.4,34.9,30.26,NNW,348,0.0,0.0,87,0.00,,,0.00,Wunderground v.1.15,2013-01-23 06:20:00,
2013-01-23 01:25:00,38.3,34.8,30.26,NNW,348,0.0,0.0,87,0.00,,,0.00,Wunderground v.1.15,2013-01-23 06:25:00,
2013-01-23 01:30:00,38.3,35.1,30.26,NNW,348,0.0,0.0,88,0.00,,,0.00,Wunderground v.1.15,2013-01-23 06:30:00,
2013-01-23 01:35:00,38.3,35.1,30.26,NNW,348,0.0,0.0,88,0.00,,,0.00,Wunderground v.1.15,2013-01-23 06:35:00,
2013-01-23 01:45:00,38.3,35.1,30.26,NNW,348,0.0,0.0,88,0.00,,,0.00,Wunderground v.1.15,2013-01-23 06:45:00,
2013-01-23 01:50:00,38.3,35.3,30.26,NNW,348,0.0,0.0,89,0.00,,,0.00,Wunderground v.1.15,2013-01-23 06:50:00,
2013-01-23 01:55:00,38.4,35.2,30.26,NNW,348,0.0,0.0,88,0.00,,,0.00,Wunderground v.1.15,2013-01-23 06:55:00,
2013-01-23 02:00:00,38.3,35.1,30.26,NNW,348,0.0,0.0,88,0.00,,,0.00,Wunderground v.1.15,2013-01-23 07:00:00,
2013-01-23 02:05:00,38.2,35.0,30.26,NNW,348,0.0,0.0,88,0.00,,,0.00,Wunderground v.1.15,2013-01-23 07:05:00,
2013-01-23 02:15:00,38.2,35.2,30.26,NNW,348,0.0,0.0,89,0.00,,,0.00,Wunderground v.1.15,2013-01-23 07:15:00,
2013-01-23 02:20:00,38.3,35.3,30.26,NNW,348,0.0,0.0,89,0.00,,,0.00,Wunderground v.1.15,2013-01-23 07:20:00,
2013-01-23 02:30:00,38.3,35.3,30.26,NNW,348,0.0,0.0,89,0.00,,,0.00,Wunderground v.1.15,2013-01-23 07:30:00,
2013-01-23 02:35:00,38.3,35.3,30.26,NNW,348,0.0,0.0,89,0.00,,,0.00,Wunderground v.1.15,2013-01-23 07:35:00,
2013-01-23 02:40:00,38.2,35.2,30.26,NNW,348,0.0,0.0,89,0.00,,,0.00,Wunderground v.1.15,2013-01-23 07:40:00,
2013-01-23 02:45:00,38.2,35.2,30.26,NNW,348,0.0,0.0,89,0.00,,,0.00,Wunderground v.1.15,2013-01-23 07:45:00,
2013-01-23 02:55:00,38.0,35.0,30.27,NNW,348,0.0,0.0,89,0.00,,,0.00,Wunderground v.1.15,2013-01-23 07:55:00,
2013-01-23 03:00:00,37.8,34.8,30.26,NNW,348,0.0,0.0,89,0.00,,,0.00,Wunderground v.1.15,2013-01-23 08:00:00,
2013-01-23 03:05:00,37.5,34.6,30.27,NNW,348,0.0,0.0,89,0.00,,,0.00,Wunderground v.1.15,2013-01-23 08:05:00,
2013-01-23 03:10:00,37.4,34.5,30.27,NNW,348,0.0,0.0,89,0.00,,,0.00,Wunderground v.1.15,2013-01-23 08:10:00,
2013-01-23 03:15:00,37.2,34.3,30.27,NNW,348,0.0,0.0,89,0.00,,,0.00,Wunderground v.1.15,2013-01-23 08:15:00,
2013-01-23 03:20:00,37.1,34.4,30.27,NNW,348,0.0,0.0,90,0.00,,,0.00,Wunderground v.1.15,2013-01-23 08:20:00,
2013-01-23 03:25:00,37.0,34.3,30.27,NNW,348,0.0,0.0,90,0.00,,,0.00,Wunderground v.1.15,2013-01-23 08:25:00,
2013-01-23 03:30:00,36.8,33.9,30.27,NNW,348,0.0,0.0,89,0.00,,,0.00,Wunderground v.1.15,2013-01-23 08:30:00,
2013-01-23 03:35:00,36.6,33.7,30.27,NNW,348,0.0,0.0,89,0.00,,,0.00,Wunderground v.1.15,2013-01-23 08:35:00,
2013-01-23 03:40:00,36.3,33.4,30.27,NNW,348,0.0,0.0,89,0.00,,,0.00,Wunderground v.1.15,2013-01-23 08:40:00,
2013-01-23 03:50:00,36.2,33.5,30.27,NNW,348,0.0,0.0,90,0.00,,,0.00,Wunderground v.1.15,2013-01-23 08:50:00,
2013-01-23 03:55:00,36.4,33.7,30.27,NNW,348,0.0,0.0,90,0.00,,,0.00,Wunderground v.1.15,2013-01-23 08:55:00,
2013-01-23 04:00:00,36.9,34.5,30.27,NNW,348,0.0,0.0,91,0.00,,,0.00,Wunderground v.1.15,2013-01-23 09:00:00,
2013-01-23 04:05:00,37.5,35.1,30.27,NNW,348,0.0,0.0,91,0.00,,,0.00,Wunderground v.1.15,2013-01-23 09:05:00,
2013-01-23 04:10:00,37.7,35.3,30.27,NNW,348,0.0,0.0,91,0.00,,,0.00,Wunderground v.1.15,2013-01-23 09:10:00,
2013-01-23 04:15:00,38.0,35.6,30.28,NNW,348,0.0,0.0,91,0.00,,,0.00,Wunderground v.1.15,2013-01-23 09:15:00,
2013-01-23 04:20:00,38.3,36.2,30.28,NNW,348,0.0,0.0,92,0.00,,,0.00,Wunderground v.1.15,2013-01-23 09:20:00,
2013-01-23 04:25:00,38.5,36.1,30.27,NNW,348,0.0,0.0,91,0.00,,,0.00,Wunderground v.1.15,2013-01-23 09:25:00,
2013-01-23 04:30:00,38.7,36.6,30.28,NNW,348,0.0,0.0,92,0.00,,,0.00,Wunderground v.1.15,2013-01-23 09:30:00,
2013-01-23 04:35:00,38.7,36.6,30.28,NNW,348,0.0,0.0,92,0.00,,,0.00,Wunderground v.1.15,2013-01-23 09:35:00,
2013-01-23 04:40:00,38.8,36.7,30.28,NNW,348,0.0,0.0,92,0.00,,,0.00,Wunderground v.1.15,2013-01-23 09:40:00,
2013-01-23 04:45:00,38.7,36.6,30.28,NNW,348,0.0,0.0,92,0.00,,,0.00,Wunderground v.1.15,2013-01-23 09:45:00,
2013-01-23 04:50:00,38.6,36.5,30.28,NNW,348,0.0,0.0,92,0.00,,,0.00,Wunderground v.1.15,2013-01-23 09:50:00,
2013-01-23 04:55:00,38.4,36.0,30.28,NNW,348,0.0,0.0,91,0.00,,,0.00,Wunderground v.1.15,2013-01-23 09:55:00,
2013-01-23 05:00:00,38.2,35.8,30.28,NNW,348,0.0,0.0,91,0.00,,,0.00,Wunderground v.1.15,2013-01-23 10:00:00,
2013-01-23 05:05:00,38.0,35.6,30.28,NNW,348,0.0,0.0,91,0.00,,,0.00,Wunderground v.1.15,2013-01-23 10:05:00,
2013-01-23 05:15:00,37.8,35.4,30.29,NNW,348,0.0,0.0,91,0.00,,,0.00,Wunderground v.1.15,2013-01-23 10:15:00,
2013-01-23 05:20:00,37.7,35.6,30.29,NNW,348,0.0,0.0,92,0.00,,,0.00,Wunderground v.1.15,2013-01-23 10:20:00,
2013-01-23 05:25:00,37.7,35.6,30.29,NNW,348,0.0,0.0,92,0.00,,,0.00,Wunderground v.1.15,2013-01-23 10:25:00,
2013-01-23 05:30:00,37.7,35.6,30.29,NNW,348,0.0,0.0,92,0.00,,,0.00,Wunderground v.1.15,2013-01-23 10:30:00,
2013-01-23 05:35:00,37.7,35.6,30.29,NNW,348,0.0,0.0,92,0.00,,,0.00,Wunderground v.1.15,2013-01-23 10:35:00,
2013-01-23 05:40:00,37.9,35.8,30.29,NNW,348,0.0,0.0,92,0.00,,,0.00,Wunderground v.1.15,2013-01-23 10:40:00,
2013-01-23 05:45:00,38.2,36.1,30.30,NNW,348,0.0,0.0,92,0.00,,,0.00,Wunderground v.1.15,2013-01-23 10:45:00,
2013-01-23 05:50:00,38.8,36.9,30.30,NNW,348,0.0,0.0,93,0.00,,,0.00,Wunderground v.1.15,2013-01-23 10:50:00,
2013-01-23 06:00:00,39.4,37.5,30.30,NNW,348,0.0,0.0,93,0.00,,,0.00,Wunderground v.1.15,2013-01-23 11:00:00,
2013-01-23 06:05:00,39.7,37.8,30.31,NNW,348,0.0,0.0,93,0.00,,,0.00,Wunderground v.1.15,2013-01-23 11:05:00,
2013-01-23 06:15:00,40.4,38.3,30.31,NNW,348,1.0,2.0,92,0.00,,,0.00,Wunderground v.1.15,2013-01-23 11:15:00,
2013-01-23 06:25:00,41.3,38.6,30.31,NNW,348,2.0,2.0,90,0.00,,,0.00,Wunderground v.1.15,2013-01-23 11:25:00,
2013-01-23 06:30:00,41.3,38.3,30.31,NNW,348,1.0,1.0,89,0.00,,,0.00,Wunderground v.1.15,2013-01-23 11:30:00,
2013-01-23 06:35:00,41.2,38.2,30.32,NNW,348,0.0,1.0,89,0.00,,,0.00,Wunderground v.1.15,2013-01-23 11:35:00,
2013-01-23 06:40:00,40.9,37.6,30.32,NNW,348,0.0,0.0,88,0.00,,,0.00,Wunderground v.1.15,2013-01-23 11:40:00,
2013-01-23 06:45:00,40.6,37.3,30.32,NNW,348,0.0,0.0,88,0.00,,,0.00,Wunderground v.1.15,2013-01-23 11:45:00,
2013-01-23 06:50:00,40.4,36.8,30.32,NNW,348,0.0,0.0,87,0.00,,,0.00,Wunderground v.1.15,2013-01-23 11:50:00,
2013-01-23 06:55:00,40.0,36.4,30.32,NNW,348,0.0,0.0,87,0.00,,,0.00,Wunderground v.1.15,2013-01-23 11:55:00,
2013-01-23 07:00:00,39.6,36.0,30.32,NNW,348,0.0,0.0,87,0.00,,,0.00,Wunderground v.1.15,2013-01-23 12:00:00,
2013-01-23 07:05:00,39.2,35.7,30.32,NNW,348,0.0,0.0,87,0.00,,,0.00,Wunderground v.1.15,2013-01-23 12:05:00,
2013-01-23 07:10:00,38.9,35.4,30.32,NNW,348,0.0,0.0,87,0.00,,,0.00,Wunderground v.1.15,2013-01-23 12:10:00,
2013-01-23 07:15:00,38.6,35.1,30.32,NNW,348,0.0,0.0,87,0.00,,,0.00,Wunderground v.1.15,2013-01-23 12:15:00,
2013-01-23 07:20:00,38.3,35.1,30.33,NNW,348,0.0,0.0,88,0.00,,,0.00,Wunderground v.1.15,2013-01-23 12:20:00,
2013-01-23 07:25:00,38.0,34.5,30.33,NNW,348,0.0,0.0,87,0.00,,,0.00,Wunderground v.1.15,2013-01-23 12:25:00,
2013-01-23 07:35:00,37.7,34.5,30.33,NNW,348,0.0,0.0,88,0.00,,,0.00,Wunderground v.1.15,2013-01-23 12:35:00,
2013-01-23 07:40:00,37.7,34.5,30.33,NNW,348,0.0,0.0,88,0.00,,,0.00,Wunderground v.1.15,2013-01-23 12:40:00,
2013-01-23 07:45:00,37.7,34.5,30.33,NNW,348,0.0,0.0,88,0.00,,,0.00,Wunderground v.1.15,2013-01-23 12:45:00,
2013-01-23 07:50:00,37.9,34.9,30.33,NNW,348,0.0,0.0,89,0.00,,,0.00,Wunderground v.1.15,2013-01-23 12:50:00,
2013-01-23 07:55:00,38.4,35.4,30.34,NNW,348,0.0,0.0,89,0.00,,,0.00,Wunderground v.1.15,2013-01-23 12:55:00,
2013-01-23 08:00:00,39.2,36.2,30.34,NNW,348,0.0,1.0,89,0.00,,,0.00,Wunderground v.1.15,2013-01-23 13:00:00,
2013-01-23 08:05:00,40.6,37.9,30.34,NNW,348,1.0,2.0,90,0.00,,,0.00,Wunderground v.1.15,2013-01-23 13:05:00,
2013-01-23 08:15:00,43.3,40.0,30.34,NNW,348,2.0,4.0,88,0.00,,,0.00,Wunderground v.1.15,2013-01-23 13:15:00,
2013-01-23 08:20:00,44.6,40.4,30.34,NNW,348,3.0,5.0,85,0.00,,,0.00,Wunderground v.1.15,2013-01-23 13:20:00,
2013-01-23 08:25:00,45.6,40.4,30.34,NNW,348,3.0,5.0,82,0.00,,,0.00,Wunderground v.1.15,2013-01-23 13:25:00,
2013-01-23 08:30:00,46.5,40.7,30.34,North,355,3.0,3.0,80,0.00,,,0.00,Wunderground v.1.15,2013-01-23 13:30:00,
2013-01-23 08:35:00,47.3,40.5,30.34,North,5,4.0,4.0,77,0.00,,,0.00,Wunderground v.1.15,2013-01-23 13:35:00,
2013-01-23 08:40:00,48.1,40.5,30.34,North,360,4.0,7.0,75,0.00,,,0.00,Wunderground v.1.15,2013-01-23 13:40:00,
2013-01-23 08:45:00,48.7,40.1,30.34,North,5,4.0,7.0,72,0.00,,,0.00,Wunderground v.1.15,2013-01-23 13:45:00,
2013-01-23 08:50:00,49.4,39.7,30.34,North,355,5.0,5.0,69,0.00,,,0.00,Wunderground v.1.15,2013-01-23 13:50:00,
2013-01-23 08:55:00,50.1,39.6,30.34,North,355,5.0,5.0,67,0.00,,,0.00,Wunderground v.1.15,2013-01-23 13:55:00,
2013-01-23 09:00:00,50.8,39.5,30.34,North,355,5.0,5.0,65,0.00,,,0.00,Wunderground v.1.15,2013-01-23 14:00:00,
2013-01-23 09:05:00,51.7,39.1,30.35,NNW,348,5.0,5.0,62,0.00,,,0.00,Wunderground v.1.15,2013-01-23 14:05:00,
2013-01-23 09:10:00,52.2,38.7,30.35,North,360,5.0,5.0,60,0.00,,,0.00,Wunderground v.1.15,2013-01-23 14:10:00,
2013-01-23 09:15:00,52.8,38.9,30.34,North,355,5.0,5.0,59,0.00,,,0.00,Wunderground v.1.15,2013-01-23 14:15:00,
2013-01-23 09:20:00,53.4,38.5,30.35,North,355,5.0,5.0,57,0.00,,,0.00,Wunderground v.1.15,2013-01-23 14:20:00,
2013-01-23 09:25:00,53.9,38.6,30.35,North,350,5.0,5.0,56,0.00,,,0.00,Wunderground v.1.15,2013-01-23 14:25:00,
2013-01-23 09:30:00,54.6,39.2,30.35,NNW,341,5.0,5.0,56,0.00,,,0.00,Wunderground v.1.15,2013-01-23 14:30:00,
2013-01-23 09:35:00,55.4,39.5,30.35,North,9,4.0,5.0,55,0.00,,,0.00,Wunderground v.1.15,2013-01-23 14:35:00,
2013-01-23 09:40:00,56.0,38.1,30.35,North,10,5.0,6.0,51,0.00,,,0.00,Wunderground v.1.15,2013-01-23 14:40:00,
2013-01-23 09:50:00,56.5,38.1,30.35,NNE,21,7.0,7.0,50,0.00,,,0.00,Wunderground v.1.15,2013-01-23 14:50:00,
2013-01-23 09:55:00,57.2,37.7,30.36,NNE,19,6.0,7.0,48,0.00,,,0.00,Wunderground v.1.15,2013-01-23 14:55:00,
2013-01-23 10:00:00,57.8,37.7,30.36,NNE,24,6.0,6.0,47,0.00,,,0.00,Wunderground v.1.15,2013-01-23 15:00:00,
2013-01-23 10:05:00,58.2,38.1,30.35,North,360,6.0,6.0,47,0.00,,,0.00,Wunderground v.1.15,2013-01-23 15:05:00,
2013-01-23 10:10:00,58.9,38.7,30.35,North,11,5.0,10.0,47,0.00,,,0.00,Wunderground v.1.15,2013-01-23 15:10:00,
2013-01-23 10:15:00,59.0,37.7,30.35,NNE,29,5.0,10.0,45,0.00,,,0.00,Wunderground v.1.15,2013-01-23 15:15:00,
2013-01-23 10:20:00,59.1,37.8,30.36,NNE,28,5.0,5.0,45,0.00,,,0.00,Wunderground v.1.15,2013-01-23 15:20:00,
2013-01-23 10:25:00,59.6,38.2,30.36,NNE,17,5.0,5.0,45,0.00,,,0.00,Wunderground v.1.15,2013-01-23 15:25:00,
2013-01-23 10:30:00,59.9,37.3,30.36,North,355,5.0,5.0,43,0.00,,,0.00,Wunderground v.1.15,2013-01-23 15:30:00,
2013-01-23 10:35:00,60.6,38.0,30.36,North,5,5.0,5.0,43,0.00,,,0.00,Wunderground v.1.15,2013-01-23 15:35:00,
2013-01-23 10:45:00,61.1,37.8,30.35,North,360,5.0,5.0,42,0.00,,,0.00,Wunderground v.1.15,2013-01-23 15:45:00,
2013-01-23 10:50:00,61.7,37.7,30.35,NNE,22,5.0,5.0,41,0.00,,,0.00,Wunderground v.1.15,2013-01-23 15:50:00,
2013-01-23 10:55:00,61.8,38.4,30.35,NNE,22,4.0,5.0,42,0.00,,,0.00,Wunderground v.1.15,2013-01-23 15:55:00,
2013-01-23 11:00:00,62.2,38.2,30.35,NNE,25,3.0,3.0,41,0.00,,,0.00,Wunderground v.1.15,2013-01-23 16:00:00,
2013-01-23 11:05:00,62.6,38.6,30.35,NNE,17,3.0,5.0,41,0.00,,,0.00,Wunderground v.1.15,2013-01-23 16:05:00,
2013-01-23 11:10:00,63.0,38.3,30.35,NNE,29,4.0,4.0,40,0.00,,,0.00,Wunderground v.1.15,2013-01-23 16:10:00,
2013-01-23 11:15:00,63.3,38.6,30.35,North,10,4.0,4.0,40,0.00,,,0.00,Wunderground v.1.15,2013-01-23 16:15:00,
2013-01-23 11:20:00,63.8,38.4,30.34,North,11,4.0,5.0,39,0.00,,,0.00,Wunderground v.1.15,2013-01-23 16:20:00,
2013-01-23 11:25:00,63.8,38.4,30.34,NNE,24,4.0,5.0,39,0.00,,,0.00,Wunderground v.1.15,2013-01-23 16:25:00,
2013-01-23 11:30:00,64.3,38.8,30.34,North,5,3.0,3.0,39,0.00,,,0.00,Wunderground v.1.15,2013-01-23 16:30:00,
2013-01-23 11:35:00,64.7,38.5,30.33,North,9,3.0,3.0,38,0.00,,,0.00,Wunderground v.1.15,2013-01-23 16:35:00,
2013-01-23 11:40:00,65.2,38.9,30.33,North,360,3.0,5.0,38,0.00,,,0.00,Wunderground v.1.15,2013-01-23 16:40:00,
2013-01-23 11:45:00,65.4,38.4,30.33,North,360,4.0,5.0,37,0.00,,,0.00,Wunderground v.1.15,2013-01-23 16:45:00,
2013-01-23 11:50:00,65.8,38.8,30.33,North,355,4.0,6.0,37,0.00,,,0.00,Wunderground v.1.15,2013-01-23 16:50:00,
2013-01-23 11:55:00,66.3,39.2,30.33,NNW,340,4.0,6.0,37,0.00,,,0.00,Wunderground v.1.15,2013-01-23 16:55:00,
2013-01-23 12:00:00,66.2,39.1,30.32,North,349,4.0,4.0,37,0.00,,,0.00,Wunderground v.1.15,2013-01-23 17:00:00,
2013-01-23 12:05:00,66.2,39.1,30.32,NNW,337,3.0,4.0,37,0.00,,,0.00,Wunderground v.1.15,2013-01-23 17:05:00,
2013-01-23 12:15:00,66.5,38.7,30.32,North,360,4.0,4.0,36,0.00,,,0.00,Wunderground v.1.15,2013-01-23 17:15:00,
2013-01-23 12:20:00,66.9,38.3,30.31,North,360,3.0,4.0,35,0.00,,,0.00,Wunderground v.1.15,2013-01-23 17:20:00,
2013-01-23 12:25:00,67.4,36.5,30.31,NNE,13,3.0,4.0,32,0.00,,,0.00,Wunderground v.1.15,2013-01-23 17:25:00,
2013-01-23 12:30:00,67.0,36.1,30.31,NNE,15,5.0,5.0,32,0.00,,,0.00,Wunderground v.1.15,2013-01-23 17:30:00,
2013-01-23 12:35:00,66.6,36.6,30.31,NNE,22,4.0,5.0,33,0.00,,,0.00,Wunderground v.1.15,2013-01-23 17:35:00,
2013-01-23 12:40:00,67.2,35.5,30.30,NNW,329,4.0,4.0,31,0.00,,,0.00,Wunderground v.1.15,2013-01-23 17:40:00,
2013-01-23 12:45:00,67.9,35.3,30.30,NW,324,4.0,6.0,30,0.00,,,0.00,Wunderground v.1.15,2013-01-23 17:45:00,
2013-01-23 12:50:00,68.0,35.4,30.30,NW,325,4.0,5.0,30,0.00,,,0.00,Wunderground v.1.15,2013-01-23 17:50:00,
2013-01-23 12:55:00,68.5,35.8,30.29,NNW,333,5.0,5.0,30,0.00,,,0.00,Wunderground v.1.15,2013-01-23 17:55:00,
2013-01-23 13:05:00,68.9,36.2,30.28,NNW,330,3.0,4.0,30,0.00,,,0.00,Wunderground v.1.15,2013-01-23 18:05:00,
2013-01-23 13:15:00,69.4,35.7,30.28,North,5,5.0,9.0,29,0.00,,,0.00,Wunderground v.1.15,2013-01-23 18:15:00,
2013-01-23 13:20:00,69.0,35.4,30.27,North,355,5.0,5.0,29,0.00,,,0.00,Wunderground v.1.15,2013-01-23 18:20:00,
2013-01-23 13:25:00,69.4,36.6,30.27,NNW,346,4.0,7.0,30,0.00,,,0.00,Wunderground v.1.15,2013-01-23 18:25:00,
2013-01-23 13:30:00,69.5,36.7,30.27,North,350,4.0,4.0,30,0.00,,,0.00,Wunderground v.1.15,2013-01-23 18:30:00,
2013-01-23 13:35:00,69.0,36.3,30.27,NNE,17,5.0,5.0,30,0.00,,,0.00,Wunderground v.1.15,2013-01-23 18:35:00,
2013-01-23 13:40:00,68.7,36.8,30.26,North,360,4.0,7.0,31,0.00,,,0.00,Wunderground v.1.15,2013-01-23 18:40:00,
2013-01-23 13:45:00,69.3,37.3,30.26,NNW,337,4.0,7.0,31,0.00,,,0.00,Wunderground v.1.15,2013-01-23 18:45:00,
2013-01-23 13:50:00,69.7,36.9,30.26,NNW,344,5.0,6.0,30,0.00,,,0.00,Wunderground v.1.15,2013-01-23 18:50:00,
2013-01-23 13:55:00,69.8,36.1,30.26,NNW,340,5.0,6.0,29,0.00,,,0.00,Wunderground v.1.15,2013-01-23 18:55:00,
2013-01-23 14:00:00,69.9,36.2,30.26,NNW,327,4.0,7.0,29,0.00,,,0.00,Wunderground v.1.15,2013-01-23 19:00:00,
2013-01-23 14:05:00,69.9,36.2,30.26,NNW,342,4.0,7.0,29,0.00,,,0.00,Wunderground v.1.15,2013-01-23 19:05:00,
2013-01-23 14:15:00,69.8,35.2,30.25,NNW,333,4.0,6.0,28,0.00,,,0.00,Wunderground v.1.15,2013-01-23 19:15:00,
2013-01-23 14:20:00,70.1,36.3,30.25,NNW,344,4.0,4.0,29,0.00,,,0.00,Wunderground v.1.15,2013-01-23 19:20:00,
2013-01-23 14:25:00,70.2,35.5,30.25,NNW,342,4.0,4.0,28,0.00,,,0.00,Wunderground v.1.15,2013-01-23 19:25:00,
2013-01-23 14:30:00,70.0,34.5,30.25,North,355,5.0,7.0,27,0.00,,,0.00,Wunderground v.1.15,2013-01-23 19:30:00,
2013-01-23 14:35:00,69.6,34.1,30.25,NNW,346,5.0,7.0,27,0.00,,,0.00,Wunderground v.1.15,2013-01-23 19:35:00,
2013-01-23 14:40:00,69.4,34.9,30.25,North,350,5.0,5.0,28,0.00,,,0.00,Wunderground v.1.15,2013-01-23 19:40:00,
2013-01-23 14:45:00,69.3,34.8,30.25,North,355,5.0,6.0,28,0.00,,,0.00,Wunderground v.1.15,2013-01-23 19:45:00,
2013-01-23 14:50:00,69.0,34.5,30.25,North,355,5.0,5.0,28,0.00,,,0.00,Wunderground v.1.15,2013-01-23 19:50:00,
2013-01-23 14:55:00,69.0,34.5,30.25,North,355,3.0,5.0,28,0.00,,,0.00,Wunderground v.1.15,2013-01-23 19:55:00,
2013-01-23 15:00:00,69.1,34.6,30.25,North,355,3.0,4.0,28,0.00,,,0.00,Wunderground v.1.15,2013-01-23 20:00:00,
2013-01-23 15:05:00,69.2,34.7,30.25,NNW,338,4.0,4.0,28,0.00,,,0.00,Wunderground v.1.15,2013-01-23 20:05:00,
2013-01-23 15:15:00,69.7,36.0,30.25,NNW,331,4.0,4.0,29,0.00,,,0.00,Wunderground v.1.15,2013-01-23 20:15:00,
2013-01-23 15:20:00,69.5,34.9,30.25,NNW,342,3.0,4.0,28,0.00,,,0.00,Wunderground v.1.15,2013-01-23 20:20:00,
2013-01-23 15:25:00,69.4,35.7,30.25,NNW,342,3.0,4.0,29,0.00,,,0.00,Wunderground v.1.15,2013-01-23 20:25:00,
2013-01-23 15:30:00,69.2,34.7,30.25,North,349,3.0,4.0,28,0.00,,,0.00,Wunderground v.1.15,2013-01-23 20:30:00,
2013-01-23 15:35:00,69.2,34.7,30.25,NNW,348,3.0,5.0,28,0.00,,,0.00,Wunderground v.1.15,2013-01-23 20:35:00,
2013-01-23 15:40:00,69.5,34.9,30.25,NNW,348,3.0,5.0,28,0.00,,,0.00,Wunderground v.1.15,2013-01-23 20:40:00,
2013-01-23 15:45:00,69.8,35.2,30.25,NNW,348,3.0,5.0,28,0.00,,,0.00,Wunderground v.1.15,2013-01-23 20:45:00,
2013-01-23 15:50:00,69.4,34.9,30.25,North,349,3.0,3.0,28,0.00,,,0.00,Wunderground v.1.15,2013-01-23 20:50:00,
2013-01-23 15:55:00,69.0,35.4,30.25,North,350,3.0,4.0,29,0.00,,,0.00,Wunderground v.1.15,2013-01-23 20:55:00,
2013-01-23 16:00:00,68.6,35.9,30.25,North,360,3.0,3.0,30,0.00,,,0.00,Wunderground v.1.15,2013-01-23 21:00:00,
2013-01-23 16:05:00,68.7,35.1,30.25,North,360,3.0,3.0,29,0.00,,,0.00,Wunderground v.1.15,2013-01-23 21:05:00,
2013-01-23 16:10:00,69.1,35.5,30.25,North,355,3.0,3.0,29,0.00,,,0.00,Wunderground v.1.15,2013-01-23 21:10:00,
2013-01-23 16:15:00,68.8,34.3,30.25,NNE,29,2.0,4.0,28,0.00,,,0.00,Wunderground v.1.15,2013-01-23 21:15:00,
2013-01-23 16:20:00,68.7,35.1,30.25,North,355,2.0,4.0,29,0.00,,,0.00,Wunderground v.1.15,2013-01-23 21:20:00,
2013-01-23 16:25:00,68.8,35.2,30.25,North,350,3.0,4.0,29,0.00,,,0.00,Wunderground v.1.15,2013-01-23 21:25:00,
2013-01-23 16:35:00,68.9,35.3,30.25,North,349,2.0,4.0,29,0.00,,,0.00,Wunderground v.1.15,2013-01-23 21:35:00,
2013-01-23 16:40:00,69.3,35.7,30.25,North,349,1.0,1.0,29,0.00,,,0.00,Wunderground v.1.15,2013-01-23 21:40:00,
2013-01-23 16:45:00,69.6,35.9,30.25,North,349,1.0,1.0,29,0.00,,,0.00,Wunderground v.1.15,2013-01-23 21:45:00,
2013-01-23 16:50:00,69.6,36.8,30.25,NNW,340,1.0,1.0,30,0.00,,,0.00,Wunderground v.1.15,2013-01-23 21:50:00,
2013-01-23 16:55:00,69.4,36.6,30.25,NNW,340,0.0,1.0,30,0.00,,,0.00,Wunderground v.1.15,2013-01-23 21:55:00,
2013-01-23 17:00:00,69.2,37.3,30.26,NNW,340,0.0,3.0,31,0.00,,,0.00,Wunderground v.1.15,2013-01-23 22:00:00,
2013-01-23 17:05:00,68.5,35.8,30.26,NNW,341,2.0,3.0,30,0.00,,,0.00,Wunderground v.1.15,2013-01-23 22:05:00,
2013-01-23 17:15:00,67.9,36.1,30.26,NNW,340,3.0,3.0,31,0.00,,,0.00,Wunderground v.1.15,2013-01-23 22:15:00,
2013-01-23 17:20:00,67.5,36.6,30.26,NNW,339,2.0,2.0,32,0.00,,,0.00,Wunderground v.1.15,2013-01-23 22:20:00,
2013-01-23 17:25:00,67.0,36.1,30.26,NNW,339,1.0,2.0,32,0.00,,,0.00,Wunderground v.1.15,2013-01-23 22:25:00,
2013-01-23 17:30:00,66.3,36.3,30.26,NNW,339,1.0,2.0,33,0.00,,,0.00,Wunderground v.1.15,2013-01-23 22:30:00,
2013-01-23 17:40:00,64.7,35.7,30.26,NNW,338,1.0,1.0,34,0.00,,,0.00,Wunderground v.1.15,2013-01-23 22:40:00,
2013-01-23 17:45:00,63.8,35.6,30.26,NNW,338,0.0,1.0,35,0.00,,,0.00,Wunderground v.1.15,2013-01-23 22:45:00,
2013-01-23 17:50:00,63.0,34.9,30.26,NNW,339,0.0,0.0,35,0.00,,,0.00,Wunderground v.1.15,2013-01-23 22:50:00,
2013-01-23 17:55:00,62.3,37.7,30.26,NNW,339,0.0,0.0,40,0.00,,,0.00,Wunderground v.1.15,2013-01-23 22:55:00,
2013-01-23 18:00:00,61.5,38.2,30.26,NNW,339,0.0,0.0,42,0.00,,,0.00,Wunderground v.1.15,2013-01-23 23:00:00,
2013-01-23 18:05:00,60.5,36.0,30.27,NNW,339,0.0,0.0,40,0.00,,,0.00,Wunderground v.1.15,2013-01-23 23:05:00,
2013-01-23 18:10:00,59.6,36.5,30.27,NNW,339,0.0,0.0,42,0.00,,,0.00,Wunderground v.1.15,2013-01-23 23:10:00,
2013-01-23 18:15:00,59.0,37.1,30.27,NNW,339,0.0,0.0,44,0.00,,,0.00,Wunderground v.1.15,2013-01-23 23:15:00,
2013-01-23 18:20:00,57.6,35.2,30.27,NNW,338,0.0,0.0,43,0.00,,,0.00,Wunderground v.1.15,2013-01-23 23:20:00,
2013-01-23 18:25:00,56.2,35.1,30.27,NNW,339,0.0,0.0,45,0.00,,,0.00,Wunderground v.1.15,2013-01-23 23:25:00,
2013-01-23 18:30:00,54.7,34.3,30.27,NNW,339,0.0,0.0,46,0.00,,,0.00,Wunderground v.1.15,2013-01-23 23:30:00,
2013-01-23 18:35:00,53.1,33.9,30.27,NNW,338,0.0,0.0,48,0.00,,,0.00,Wunderground v.1.15,2013-01-23 23:35:00,
2013-01-23 18:40:00,51.8,33.7,30.28,NNW,338,0.0,0.0,50,0.00,,,0.00,Wunderground v.1.15,2013-01-23 23:40:00,
2013-01-23 18:45:00,50.3,32.8,30.28,NNW,338,0.0,0.0,51,0.00,,,0.00,Wunderground v.1.15,2013-01-23 23:45:00,
2013-01-23 18:50:00,49.0,32.1,30.28,NNW,338,0.0,0.0,52,0.00,,,0.00,Wunderground v.1.15,2013-01-23 23:50:00,
2013-01-23 18:55:00,47.8,32.4,30.28,NNW,338,0.0,0.0,55,0.00,,,0.00,Wunderground v.1.15,2013-01-23 23:55:00,
2013-01-23 19:00:00,46.9,32.4,30.28,NNW,339,0.0,0.0,57,0.00,,,0.00,Wunderground v.1.15,2013-01-24 00:00:00,
2013-01-23 19:05:00,46.3,32.3,30.28,NNW,339,0.0,0.0,58,0.00,,,0.00,Wunderground v.1.15,2013-01-24 00:05:00,
2013-01-23 19:15:00,45.3,32.2,30.28,NNW,339,0.0,0.0,60,0.00,,,0.00,Wunderground v.1.15,2013-01-24 00:15:00,
2013-01-23 19:20:00,44.9,32.3,30.28,NNW,338,0.0,0.0,61,0.00,,,0.00,Wunderground v.1.15,2013-01-24 00:20:00,
2013-01-23 19:25:00,44.1,31.5,30.28,NNW,339,0.0,0.0,61,0.00,,,0.00,Wunderground v.1.15,2013-01-24 00:25:00,
2013-01-23 19:30:00,43.6,32.2,30.29,NNW,339,0.0,0.0,64,0.00,,,0.00,Wunderground v.1.15,2013-01-24 00:30:00,
2013-01-23 19:35:00,43.5,32.9,30.29,NNW,339,0.0,0.0,66,0.00,,,0.00,Wunderground v.1.15,2013-01-24 00:35:00,
2013-01-23 19:40:00,43.3,33.4,30.29,NNW,339,0.0,0.0,68,0.00,,,0.00,Wunderground v.1.15,2013-01-24 00:40:00,
2013-01-23 19:45:00,42.9,33.1,30.29,NNW,339,0.0,0.0,68,0.00,,,0.00,Wunderground v.1.15,2013-01-24 00:45:00,
2013-01-23 19:50:00,42.7,33.9,30.29,NNW,338,0.0,0.0,71,0.00,,,0.00,Wunderground v.1.15,2013-01-24 00:50:00,
2013-01-23 19:55:00,43.3,35.2,30.29,NNW,339,0.0,0.0,73,0.00,,,0.00,Wunderground v.1.15,2013-01-24 00:55:00,
2013-01-23 20:00:00,44.2,36.1,30.29,NNW,338,0.0,0.0,73,0.00,,,0.00,Wunderground v.1.15,2013-01-24 01:00:00,
2013-01-23 20:05:00,44.9,36.1,30.29,NNW,339,0.0,0.0,71,0.00,,,0.00,Wunderground v.1.15,2013-01-24 01:05:00,
2013-01-23 20:10:00,45.0,35.8,30.30,NNW,339,0.0,0.0,70,0.00,,,0.00,Wunderground v.1.15,2013-01-24 01:10:00,
2013-01-23 20:15:00,45.0,35.4,30.29,NNW,338,0.0,0.0,69,0.00,,,0.00,Wunderground v.1.15,2013-01-24 01:15:00,
2013-01-23 20:20:00,44.9,35.0,30.29,NNW,339,0.0,0.0,68,0.00,,,0.00,Wunderground v.1.15,2013-01-24 01:20:00,
2013-01-23 20:30:00,44.0,34.1,30.29,NNW,338,0.0,0.0,68,0.00,,,0.00,Wunderground v.1.15,2013-01-24 01:30:00,
2013-01-23 20:35:00,43.6,34.1,30.29,NNW,339,0.0,0.0,69,0.00,,,0.00,Wunderground v.1.15,2013-01-24 01:35:00,
2013-01-23 20:40:00,43.1,33.6,30.29,NNW,338,0.0,0.0,69,0.00,,,0.00,Wunderground v.1.15,2013-01-24 01:40:00,
2013-01-23 20:45:00,42.7,33.6,30.30,NNW,339,0.0,0.0,70,0.00,,,0.00,Wunderground v.1.15,2013-01-24 01:45:00,
2013-01-23 20:50:00,42.2,33.5,30.30,NNW,339,0.0,0.0,71,0.00,,,0.00,Wunderground v.1.15,2013-01-24 01:50:00,
2013-01-23 20:55:00,41.9,33.5,30.30,NNW,338,0.0,0.0,72,0.00,,,0.00,Wunderground v.1.15,2013-01-24 01:55:00,
2013-01-23 21:00:00,41.6,33.6,30.30,NNW,339,0.0,0.0,73,0.00,,,0.00,Wunderground v.1.15,2013-01-24 02:00:00,
2013-01-23 21:05:00,41.4,33.7,30.29,NNW,339,0.0,0.0,74,0.00,,,0.00,Wunderground v.1.15,2013-01-24 02:05:00,
2013-01-23 21:10:00,41.2,33.5,30.30,NNW,338,0.0,0.0,74,0.00,,,0.00,Wunderground v.1.15,2013-01-24 02:10:00,
2013-01-23 21:15:00,40.8,33.5,30.30,NNW,339,0.0,0.0,75,0.00,,,0.00,Wunderground v.1.15,2013-01-24 02:15:00,
2013-01-23 21:20:00,40.3,33.0,30.30,NNW,339,0.0,0.0,75,0.00,,,0.00,Wunderground v.1.15,2013-01-24 02:20:00,
2013-01-23 21:25:00,39.8,32.8,30.30,NNW,339,0.0,0.0,76,0.00,,,0.00,Wunderground v.1.15,2013-01-24 02:25:00,
2013-01-23 21:30:00,39.5,32.6,30.30,NNW,338,0.0,0.0,76,0.00,,,0.00,Wunderground v.1.15,2013-01-24 02:30:00,
2013-01-23 21:35:00,39.4,32.8,30.30,NNW,339,0.0,0.0,77,0.00,,,0.00,Wunderground v.1.15,2013-01-24 02:35:00,
2013-01-23 21:40:00,39.6,33.0,30.30,NNW,339,0.0,0.0,77,0.00,,,0.00,Wunderground v.1.15,2013-01-24 02:40:00,
2013-01-23 21:45:00,39.5,32.9,30.30,NNW,338,0.0,0.0,77,0.00,,,0.00,Wunderground v.1.15,2013-01-24 02:45:00,
2013-01-23 21:50:00,39.2,32.6,30.30,NNW,339,0.0,0.0,77,0.00,,,0.00,Wunderground v.1.15,2013-01-24 02:50:00,
2013-01-23 21:55:00,38.6,32.0,30.30,NNW,338,0.0,0.0,77,0.00,,,0.00,Wunderground v.1.15,2013-01-24 02:55:00,
2013-01-23 22:00:00,37.9,31.3,30.30,NNW,339,0.0,0.0,77,0.00,,,0.00,Wunderground v.1.15,2013-01-24 03:00:00,
2013-01-23 22:05:00,37.5,31.3,30.30,NNW,338,0.0,0.0,78,0.00,,,0.00,Wunderground v.1.15,2013-01-24 03:05:00,
2013-01-23 22:10:00,37.4,31.2,30.30,NNW,339,0.0,0.0,78,0.00,,,0.00,Wunderground v.1.15,2013-01-24 03:10:00,
2013-01-23 22:15:00,37.5,31.6,30.30,NNW,338,0.0,0.0,79,0.00,,,0.00,Wunderground v.1.15,2013-01-24 03:15:00,
2013-01-23 22:20:00,37.4,31.5,30.30,NNW,339,0.0,0.0,79,0.00,,,0.00,Wunderground v.1.15,2013-01-24 03:20:00,
2013-01-23 22:25:00,37.7,32.1,30.30,NNW,338,0.0,0.0,80,0.00,,,0.00,Wunderground v.1.15,2013-01-24 03:25:00,
2013-01-23 22:30:00,37.9,32.3,30.30,NNW,339,0.0,0.0,80,0.00,,,0.00,Wunderground v.1.15,2013-01-24 03:30:00,
2013-01-23 22:35:00,37.6,32.0,30.30,NNW,339,0.0,0.0,80,0.00,,,0.00,Wunderground v.1.15,2013-01-24 03:35:00,
2013-01-23 22:40:00,37.2,31.6,30.30,NNW,339,0.0,0.0,80,0.00,,,0.00,Wunderground v.1.15,2013-01-24 03:40:00,
2013-01-23 22:50:00,36.5,31.2,30.30,NNW,338,0.0,0.0,81,0.00,,,0.00,Wunderground v.1.15,2013-01-24 03:50:00,
2013-01-23 22:55:00,36.2,30.9,30.30,NNW,339,0.0,0.0,81,0.00,,,0.00,Wunderground v.1.15,2013-01-24 03:55:00,
2013-01-23 23:00:00,36.2,31.2,30.30,NNW,339,0.0,0.0,82,0.00,,,0.00,Wunderground v.1.15,2013-01-24 04:00:00,
2013-01-23 23:05:00,36.6,31.6,30.30,NNW,339,0.0,0.0,82,0.00,,,0.00,Wunderground v.1.15,2013-01-24 04:05:00,
2013-01-23 23:15:00,38.1,34.0,30.29,NNW,339,1.0,2.0,85,0.00,,,0.00,Wunderground v.1.15,2013-01-24 04:15:00,
2013-01-23 23:20:00,38.6,34.5,30.29,NNW,339,0.0,0.0,85,0.00,,,0.00,Wunderground v.1.15,2013-01-24 04:20:00,
2013-01-23 23:30:00,38.6,34.5,30.29,NNW,339,0.0,0.0,85,0.00,,,0.00,Wunderground v.1.15,2013-01-24 04:30:00,
2013-01-23 23:35:00,38.4,34.0,30.29,NNW,339,0.0,0.0,84,0.00,,,0.00,Wunderground v.1.15,2013-01-24 04:35:00,
2013-01-23 23:40:00,38.0,33.6,30.30,NNW,339,0.0,0.0,84,0.00,,,0.00,Wunderground v.1.15,2013-01-24 04:40:00,
2013-01-23 23:45:00,37.7,33.3,30.29,NNW,339,0.0,0.0,84,0.00,,,0.00,Wunderground v.1.15,2013-01-24 04:45:00,
2013-01-23 23:55:00,36.9,32.5,30.29,NNW,338,0.0,0.0,84,0.00,,,0.00,Wunderground v.1.15,2013-01-24 04:55:00,